sensor_id;sensor_type;location;lat;lon;timestamp;P1;durP1;ratioP1;P2;durP2;ratioP2
37891;SDS011;45797;47.466;9.486;2024-01-27T00:03:12;2.45;;;1.00;;
37891;SDS011;45797;47.466;9.486;2024-01-27T00:08:33;2.05;;;0.70;;
37891;SDS011;45797;47.466;9.486;2024-01-27T00:19:21;1.00;;;0.55;;
37891;SDS011;45797;47.466;9.486;2024-01-27T00:24:59;2.78;;;0.80;;
37891;SDS011;45797;47.466;9.486;2024-01-27T00:35:55;1.10;;;0.60;;
37891;SDS011;45797;47.466;9.486;2024-01-27T00:41:16;1.75;;;0.80;;
37891;SDS011;45797;47.466;9.486;2024-01-27T00:46:37;1.45;;;0.73;;
37891;SDS011;45797;47.466;9.486;2024-01-27T00:51:59;2.92;;;0.90;;
37891;SDS011;45797;47.466;9.486;2024-01-27T01:02:51;1.20;;;0.60;;
37891;SDS011;45797;47.466;9.486;2024-01-27T01:08:11;1.67;;;0.70;;
37891;SDS011;45797;47.466;9.486;2024-01-27T01:13:33;2.40;;;0.95;;
37891;SDS011;45797;47.466;9.486;2024-01-27T01:18:55;5.47;;;0.90;;
37891;SDS011;45797;47.466;9.486;2024-01-27T01:24:23;4.15;;;0.98;;
37891;SDS011;45797;47.466;9.486;2024-01-27T01:29:50;1.88;;;0.85;;
37891;SDS011;45797;47.466;9.486;2024-01-27T01:35:12;1.40;;;0.77;;
37891;SDS011;45797;47.466;9.486;2024-01-27T01:46:05;3.83;;;0.90;;
37891;SDS011;45797;47.466;9.486;2024-01-27T01:51:28;4.22;;;0.90;;
37891;SDS011;45797;47.466;9.486;2024-01-27T01:56:51;2.00;;;0.75;;
37891;SDS011;45797;47.466;9.486;2024-01-27T02:02:12;1.40;;;0.70;;
37891;SDS011;45797;47.466;9.486;2024-01-27T02:07:34;1.50;;;0.77;;
37891;SDS011;45797;47.466;9.486;2024-01-27T02:12:55;2.72;;;1.00;;
37891;SDS011;45797;47.466;9.486;2024-01-27T02:18:18;2.92;;;0.82;;
37891;SDS011;45797;47.466;9.486;2024-01-27T02:23:38;7.60;;;1.13;;
37891;SDS011;45797;47.466;9.486;2024-01-27T02:28:59;2.33;;;1.10;;
37891;SDS011;45797;47.466;9.486;2024-01-27T02:39:44;3.50;;;0.90;;
37891;SDS011;45797;47.466;9.486;2024-01-27T02:45:14;4.40;;;1.00;;
37891;SDS011;45797;47.466;9.486;2024-01-27T02:50:37;4.63;;;1.00;;
37891;SDS011;45797;47.466;9.486;2024-01-27T02:55:58;1.92;;;0.82;;
37891;SDS011;45797;47.466;9.486;2024-01-27T03:06:45;2.65;;;0.75;;
37891;SDS011;45797;47.466;9.486;2024-01-27T03:12:06;2.63;;;0.90;;
37891;SDS011;45797;47.466;9.486;2024-01-27T03:17:27;3.95;;;1.45;;
37891;SDS011;45797;47.466;9.486;2024-01-27T03:22:48;1.85;;;0.70;;
37891;SDS011;45797;47.466;9.486;2024-01-27T03:28:09;5.22;;;0.98;;
37891;SDS011;45797;47.466;9.486;2024-01-27T03:33:30;3.65;;;0.90;;
37891;SDS011;45797;47.466;9.486;2024-01-27T03:38:51;2.92;;;1.02;;
37891;SDS011;45797;47.466;9.486;2024-01-27T03:50:05;3.78;;;1.17;;
37891;SDS011;45797;47.466;9.486;2024-01-27T04:00:54;2.92;;;1.33;;
37891;SDS011;45797;47.466;9.486;2024-01-27T04:06:17;5.05;;;1.60;;
37891;SDS011;45797;47.466;9.486;2024-01-27T04:11:40;2.78;;;1.27;;
37891;SDS011;45797;47.466;9.486;2024-01-27T04:17:00;4.85;;;1.30;;
37891;SDS011;45797;47.466;9.486;2024-01-27T04:22:22;2.92;;;1.10;;
37891;SDS011;45797;47.466;9.486;2024-01-27T04:27:42;3.15;;;1.38;;
37891;SDS011;45797;47.466;9.486;2024-01-27T04:33:14;2.47;;;1.30;;
37891;SDS011;45797;47.466;9.486;2024-01-27T04:38:34;3.30;;;1.23;;
37891;SDS011;45797;47.466;9.486;2024-01-27T04:44:05;3.38;;;1.20;;
37891;SDS011;45797;47.466;9.486;2024-01-27T04:49:27;5.15;;;1.48;;
37891;SDS011;45797;47.466;9.486;2024-01-27T04:54:56;2.45;;;1.20;;
37891;SDS011;45797;47.466;9.486;2024-01-27T05:00:16;5.32;;;1.38;;
37891;SDS011;45797;47.466;9.486;2024-01-27T05:05:44;3.72;;;1.75;;
37891;SDS011;45797;47.466;9.486;2024-01-27T05:11:13;3.60;;;1.83;;
37891;SDS011;45797;47.466;9.486;2024-01-27T05:16:34;3.78;;;1.83;;
37891;SDS011;45797;47.466;9.486;2024-01-27T05:21:56;4.32;;;1.77;;
37891;SDS011;45797;47.466;9.486;2024-01-27T05:32:41;3.72;;;1.92;;
37891;SDS011;45797;47.466;9.486;2024-01-27T05:38:13;6.70;;;2.40;;
37891;SDS011;45797;47.466;9.486;2024-01-27T05:43:33;4.38;;;2.20;;
37891;SDS011;45797;47.466;9.486;2024-01-27T05:48:54;7.18;;;2.00;;
37891;SDS011;45797;47.466;9.486;2024-01-27T05:54:31;4.05;;;1.60;;
37891;SDS011;45797;47.466;9.486;2024-01-27T06:05:40;5.07;;;2.30;;
37891;SDS011;45797;47.466;9.486;2024-01-27T06:11:10;5.70;;;2.30;;
37891;SDS011;45797;47.466;9.486;2024-01-27T06:16:39;4.47;;;1.85;;
37891;SDS011;45797;47.466;9.486;2024-01-27T06:22:00;4.57;;;2.15;;
37891;SDS011;45797;47.466;9.486;2024-01-27T06:38:09;3.50;;;1.63;;
37891;SDS011;45797;47.466;9.486;2024-01-27T06:49:09;2.60;;;1.48;;
37891;SDS011;45797;47.466;9.486;2024-01-27T06:54:30;5.97;;;2.38;;
37891;SDS011;45797;47.466;9.486;2024-01-27T06:59:51;5.30;;;1.98;;
37891;SDS011;45797;47.466;9.486;2024-01-27T07:05:12;2.78;;;1.40;;
37891;SDS011;45797;47.466;9.486;2024-01-27T07:10:34;2.35;;;1.38;;
37891;SDS011;45797;47.466;9.486;2024-01-27T07:15:59;3.75;;;1.75;;
37891;SDS011;45797;47.466;9.486;2024-01-27T07:21:21;6.00;;;1.92;;
37891;SDS011;45797;47.466;9.486;2024-01-27T07:26:43;5.05;;;1.85;;
37891;SDS011;45797;47.466;9.486;2024-01-27T07:32:05;3.50;;;1.30;;
37891;SDS011;45797;47.466;9.486;2024-01-27T07:48:31;2.50;;;1.42;;
37891;SDS011;45797;47.466;9.486;2024-01-27T07:53:54;5.32;;;1.50;;
37891;SDS011;45797;47.466;9.486;2024-01-27T07:59:15;2.85;;;1.10;;
37891;SDS011;45797;47.466;9.486;2024-01-27T08:04:44;1.75;;;1.00;;
37891;SDS011;45797;47.466;9.486;2024-01-27T08:10:05;2.70;;;1.30;;
37891;SDS011;45797;47.466;9.486;2024-01-27T08:15:26;4.93;;;2.05;;
37891;SDS011;45797;47.466;9.486;2024-01-27T08:20:48;5.28;;;2.25;;
37891;SDS011;45797;47.466;9.486;2024-01-27T08:26:09;5.15;;;2.45;;
37891;SDS011;45797;47.466;9.486;2024-01-27T08:31:29;7.10;;;3.38;;
37891;SDS011;45797;47.466;9.486;2024-01-27T08:42:27;5.75;;;2.50;;
37891;SDS011;45797;47.466;9.486;2024-01-27T08:47:48;5.40;;;2.35;;
37891;SDS011;45797;47.466;9.486;2024-01-27T08:58:34;5.53;;;2.10;;
37891;SDS011;45797;47.466;9.486;2024-01-27T09:03:55;3.70;;;1.88;;
37891;SDS011;45797;47.466;9.486;2024-01-27T09:09:16;5.00;;;2.50;;
37891;SDS011;45797;47.466;9.486;2024-01-27T09:20:22;7.38;;;2.83;;
37891;SDS011;45797;47.466;9.486;2024-01-27T09:25:52;7.75;;;2.10;;
37891;SDS011;45797;47.466;9.486;2024-01-27T09:31:12;6.38;;;2.58;;
37891;SDS011;45797;47.466;9.486;2024-01-27T09:36:35;6.97;;;2.58;;
37891;SDS011;45797;47.466;9.486;2024-01-27T09:41:58;5.22;;;2.28;;
37891;SDS011;45797;47.466;9.486;2024-01-27T09:47:30;3.75;;;2.20;;
37891;SDS011;45797;47.466;9.486;2024-01-27T09:52:51;4.03;;;2.25;;
37891;SDS011;45797;47.466;9.486;2024-01-27T10:03:43;3.38;;;1.88;;
37891;SDS011;45797;47.466;9.486;2024-01-27T10:09:10;3.17;;;2.00;;
37891;SDS011;45797;47.466;9.486;2024-01-27T10:14:46;4.25;;;2.20;;
37891;SDS011;45797;47.466;9.486;2024-01-27T10:20:12;4.50;;;1.95;;
37891;SDS011;45797;47.466;9.486;2024-01-27T10:25:39;7.07;;;2.50;;
37891;SDS011;45797;47.466;9.486;2024-01-27T10:31:07;5.75;;;2.25;;
37891;SDS011;45797;47.466;9.486;2024-01-27T10:36:42;4.22;;;1.92;;
37891;SDS011;45797;47.466;9.486;2024-01-27T10:42:04;5.75;;;2.83;;
37891;SDS011;45797;47.466;9.486;2024-01-27T10:47:28;5.50;;;2.30;;
37891;SDS011;45797;47.466;9.486;2024-01-27T10:52:50;5.57;;;2.78;;
37891;SDS011;45797;47.466;9.486;2024-01-27T10:58:12;8.82;;;2.45;;
37891;SDS011;45797;47.466;9.486;2024-01-27T11:03:42;6.10;;;2.38;;
37891;SDS011;45797;47.466;9.486;2024-01-27T11:09:03;5.03;;;2.60;;
37891;SDS011;45797;47.466;9.486;2024-01-27T11:14:25;7.45;;;2.25;;
37891;SDS011;45797;47.466;9.486;2024-01-27T11:19:48;5.10;;;2.53;;
37891;SDS011;45797;47.466;9.486;2024-01-27T11:30:34;5.63;;;2.88;;
37891;SDS011;45797;47.466;9.486;2024-01-27T11:41:26;5.93;;;3.13;;
37891;SDS011;45797;47.466;9.486;2024-01-27T11:52:31;5.82;;;3.08;;
37891;SDS011;45797;47.466;9.486;2024-01-27T11:57:51;9.55;;;3.78;;
37891;SDS011;45797;47.466;9.486;2024-01-27T12:03:12;6.35;;;3.17;;
37891;SDS011;45797;47.466;9.486;2024-01-27T12:08:35;9.52;;;3.35;;
37891;SDS011;45797;47.466;9.486;2024-01-27T12:13:58;6.30;;;3.13;;
37891;SDS011;45797;47.466;9.486;2024-01-27T12:19:31;7.78;;;3.08;;
37891;SDS011;45797;47.466;9.486;2024-01-27T12:24:52;7.45;;;3.20;;
37891;SDS011;45797;47.466;9.486;2024-01-27T12:30:21;6.53;;;2.72;;
37891;SDS011;45797;47.466;9.486;2024-01-27T12:35:43;6.72;;;3.35;;
37891;SDS011;45797;47.466;9.486;2024-01-27T12:41:12;7.40;;;3.53;;
37891;SDS011;45797;47.466;9.486;2024-01-27T12:52:18;4.63;;;2.70;;
37891;SDS011;45797;47.466;9.486;2024-01-27T12:57:40;5.63;;;3.00;;
37891;SDS011;45797;47.466;9.486;2024-01-27T13:03:02;6.28;;;3.25;;
37891;SDS011;45797;47.466;9.486;2024-01-27T13:08:23;5.60;;;3.25;;
37891;SDS011;45797;47.466;9.486;2024-01-27T13:13:46;7.20;;;3.28;;
37891;SDS011;45797;47.466;9.486;2024-01-27T13:19:20;5.15;;;2.67;;
37891;SDS011;45797;47.466;9.486;2024-01-27T13:24:40;7.40;;;3.85;;
37891;SDS011;45797;47.466;9.486;2024-01-27T13:30:01;7.63;;;3.42;;
37891;SDS011;45797;47.466;9.486;2024-01-27T13:35:22;7.40;;;3.47;;
37891;SDS011;45797;47.466;9.486;2024-01-27T13:46:07;7.22;;;3.47;;
37891;SDS011;45797;47.466;9.486;2024-01-27T13:51:29;6.45;;;3.22;;
37891;SDS011;45797;47.466;9.486;2024-01-27T13:56:49;13.73;;;4.30;;
37891;SDS011;45797;47.466;9.486;2024-01-27T14:02:17;8.05;;;3.70;;
37891;SDS011;45797;47.466;9.486;2024-01-27T14:07:46;9.05;;;3.08;;
37891;SDS011;45797;47.466;9.486;2024-01-27T14:13:23;7.50;;;2.95;;
37891;SDS011;45797;47.466;9.486;2024-01-27T14:24:25;6.10;;;3.30;;
37891;SDS011;45797;47.466;9.486;2024-01-27T14:29:47;6.03;;;2.72;;
37891;SDS011;45797;47.466;9.486;2024-01-27T14:35:07;9.13;;;3.80;;
37891;SDS011;45797;47.466;9.486;2024-01-27T14:40:30;8.02;;;2.53;;
37891;SDS011;45797;47.466;9.486;2024-01-27T14:46:01;4.82;;;2.53;;
37891;SDS011;45797;47.466;9.486;2024-01-27T14:51:23;5.50;;;3.13;;
37891;SDS011;45797;47.466;9.486;2024-01-27T14:56:46;7.45;;;2.90;;
37891;SDS011;45797;47.466;9.486;2024-01-27T15:02:23;5.45;;;2.55;;
37891;SDS011;45797;47.466;9.486;2024-01-27T15:07:46;4.72;;;2.70;;
37891;SDS011;45797;47.466;9.486;2024-01-27T15:13:09;8.70;;;3.13;;
37891;SDS011;45797;47.466;9.486;2024-01-27T15:24:24;6.63;;;2.65;;
37891;SDS011;45797;47.466;9.486;2024-01-27T15:29:46;3.88;;;2.42;;
37891;SDS011;45797;47.466;9.486;2024-01-27T15:35:06;5.10;;;2.60;;
37891;SDS011;45797;47.466;9.486;2024-01-27T15:40:29;6.70;;;2.60;;
37891;SDS011;45797;47.466;9.486;2024-01-27T15:45:51;7.43;;;3.00;;
37891;SDS011;45797;47.466;9.486;2024-01-27T15:51:14;5.18;;;2.20;;
37891;SDS011;45797;47.466;9.486;2024-01-27T16:02:00;8.43;;;2.63;;
37891;SDS011;45797;47.466;9.486;2024-01-27T16:07:22;7.25;;;2.60;;
37891;SDS011;45797;47.466;9.486;2024-01-27T16:18:17;4.97;;;2.03;;
37891;SDS011;45797;47.466;9.486;2024-01-27T16:23:37;3.65;;;1.80;;
37891;SDS011;45797;47.466;9.486;2024-01-27T16:34:28;4.88;;;1.83;;
37891;SDS011;45797;47.466;9.486;2024-01-27T16:39:50;3.28;;;1.65;;
37891;SDS011;45797;47.466;9.486;2024-01-27T16:45:11;4.95;;;2.17;;
37891;SDS011;45797;47.466;9.486;2024-01-27T16:50:32;4.20;;;2.15;;
37891;SDS011;45797;47.466;9.486;2024-01-27T16:56:00;4.55;;;2.22;;
37891;SDS011;45797;47.466;9.486;2024-01-27T17:01:24;11.70;;;3.80;;
37891;SDS011;45797;47.466;9.486;2024-01-27T17:06:46;6.55;;;3.22;;
37891;SDS011;45797;47.466;9.486;2024-01-27T17:12:06;5.75;;;2.03;;
37891;SDS011;45797;47.466;9.486;2024-01-27T17:17:30;4.65;;;2.78;;
37891;SDS011;45797;47.466;9.486;2024-01-27T17:23:00;4.28;;;2.10;;
37891;SDS011;45797;47.466;9.486;2024-01-27T17:28:20;4.85;;;2.17;;
37891;SDS011;45797;47.466;9.486;2024-01-27T17:33:51;4.05;;;1.95;;
37891;SDS011;45797;47.466;9.486;2024-01-27T17:39:12;3.97;;;2.10;;
37891;SDS011;45797;47.466;9.486;2024-01-27T17:44:33;4.45;;;1.80;;
37891;SDS011;45797;47.466;9.486;2024-01-27T17:49:56;3.78;;;1.73;;
37891;SDS011;45797;47.466;9.486;2024-01-27T17:55:18;5.00;;;2.15;;
37891;SDS011;45797;47.466;9.486;2024-01-27T18:06:12;3.60;;;1.60;;
37891;SDS011;45797;47.466;9.486;2024-01-27T18:11:40;5.28;;;2.25;;
37891;SDS011;45797;47.466;9.486;2024-01-27T18:17:00;4.03;;;1.88;;
37891;SDS011;45797;47.466;9.486;2024-01-27T18:22:21;3.65;;;1.85;;
37891;SDS011;45797;47.466;9.486;2024-01-27T18:33:14;4.43;;;2.00;;
37891;SDS011;45797;47.466;9.486;2024-01-27T18:38:34;4.35;;;1.92;;
37891;SDS011;45797;47.466;9.486;2024-01-27T18:43:55;6.78;;;2.17;;
37891;SDS011;45797;47.466;9.486;2024-01-27T18:49:23;5.15;;;2.05;;
37891;SDS011;45797;47.466;9.486;2024-01-27T18:54:43;7.47;;;2.33;;
37891;SDS011;45797;47.466;9.486;2024-01-27T19:05:40;4.95;;;2.40;;
37891;SDS011;45797;47.466;9.486;2024-01-27T19:11:02;5.78;;;3.00;;
37891;SDS011;45797;47.466;9.486;2024-01-27T19:16:32;7.70;;;2.40;;
37891;SDS011;45797;47.466;9.486;2024-01-27T19:21:53;7.13;;;3.25;;
37891;SDS011;45797;47.466;9.486;2024-01-27T19:27:15;6.43;;;2.78;;
37891;SDS011;45797;47.466;9.486;2024-01-27T19:32:35;7.40;;;2.72;;
37891;SDS011;45797;47.466;9.486;2024-01-27T19:37:56;4.70;;;2.35;;
37891;SDS011;45797;47.466;9.486;2024-01-27T19:43:25;6.85;;;2.63;;
37891;SDS011;45797;47.466;9.486;2024-01-27T19:48:45;8.05;;;3.42;;
37891;SDS011;45797;47.466;9.486;2024-01-27T19:54:06;6.57;;;3.28;;
37891;SDS011;45797;47.466;9.486;2024-01-27T19:59:34;8.23;;;3.25;;
37891;SDS011;45797;47.466;9.486;2024-01-27T20:04:55;6.45;;;3.05;;
37891;SDS011;45797;47.466;9.486;2024-01-27T20:10:26;4.85;;;2.45;;
37891;SDS011;45797;47.466;9.486;2024-01-27T20:15:46;9.77;;;3.30;;
37891;SDS011;45797;47.466;9.486;2024-01-27T20:26:49;12.27;;;3.25;;
37891;SDS011;45797;47.466;9.486;2024-01-27T20:32:13;9.40;;;4.20;;
37891;SDS011;45797;47.466;9.486;2024-01-27T20:37:37;36.50;;;10.77;;
37891;SDS011;45797;47.466;9.486;2024-01-27T20:42:59;7.78;;;3.08;;
37891;SDS011;45797;47.466;9.486;2024-01-27T20:48:41;9.55;;;3.53;;
37891;SDS011;45797;47.466;9.486;2024-01-27T20:59:36;6.13;;;3.13;;
37891;SDS011;45797;47.466;9.486;2024-01-27T21:04:57;5.82;;;3.15;;
37891;SDS011;45797;47.466;9.486;2024-01-27T21:10:26;5.68;;;3.35;;
37891;SDS011;45797;47.466;9.486;2024-01-27T21:15:48;7.63;;;3.30;;
37891;SDS011;45797;47.466;9.486;2024-01-27T21:21:09;8.55;;;3.72;;
37891;SDS011;45797;47.466;9.486;2024-01-27T21:32:18;6.05;;;3.08;;
37891;SDS011;45797;47.466;9.486;2024-01-27T21:37:42;8.23;;;4.05;;
37891;SDS011;45797;47.466;9.486;2024-01-27T21:43:03;9.30;;;3.15;;
37891;SDS011;45797;47.466;9.486;2024-01-27T21:48:27;10.45;;;4.03;;
37891;SDS011;45797;47.466;9.486;2024-01-27T21:53:48;5.60;;;2.95;;
37891;SDS011;45797;47.466;9.486;2024-01-27T22:04:34;6.05;;;3.05;;
37891;SDS011;45797;47.466;9.486;2024-01-27T22:09:58;9.02;;;3.80;;
37891;SDS011;45797;47.466;9.486;2024-01-27T22:15:19;8.55;;;3.65;;
37891;SDS011;45797;47.466;9.486;2024-01-27T22:20:40;9.65;;;3.50;;
37891;SDS011;45797;47.466;9.486;2024-01-27T22:31:29;7.15;;;3.10;;
37891;SDS011;45797;47.466;9.486;2024-01-27T22:36:58;7.40;;;3.65;;
37891;SDS011;45797;47.466;9.486;2024-01-27T22:42:20;7.75;;;3.75;;
37891;SDS011;45797;47.466;9.486;2024-01-27T22:47:42;9.93;;;4.35;;
37891;SDS011;45797;47.466;9.486;2024-01-27T22:53:02;7.50;;;3.20;;
37891;SDS011;45797;47.466;9.486;2024-01-27T22:58:24;6.07;;;3.28;;
37891;SDS011;45797;47.466;9.486;2024-01-27T23:09:27;6.45;;;2.85;;
37891;SDS011;45797;47.466;9.486;2024-01-27T23:20:10;8.03;;;3.70;;
37891;SDS011;45797;47.466;9.486;2024-01-27T23:25:31;9.70;;;4.20;;
37891;SDS011;45797;47.466;9.486;2024-01-27T23:30:51;11.23;;;3.47;;
37891;SDS011;45797;47.466;9.486;2024-01-27T23:47:18;9.00;;;3.83;;
37891;SDS011;45797;47.466;9.486;2024-01-27T23:52:39;7.23;;;3.20;;
37891;SDS011;45797;47.466;9.486;2024-01-27T23:58:14;7.30;;;3.67;;
